Time,TemperatureF,DewpointF,PressureIn,WindDirection,WindDirectionDegrees,WindSpeedMPH,WindSpeedGustMPH,Humidity,HourlyPrecipIn,Conditions,Clouds,dailyrainin,SoftwareType,DateUTC
2013-02-04 00:21:00,16.0,-6.0,-100.00,NE,55,2.0,3.0,37,-99.99,,,-99.99,,2013-02-04 06:21:00,
2013-02-04 01:22:00,16.0,-7.0,-100.00,NNE,30,3.0,4.0,36,-99.99,,,-99.99,,2013-02-04 07:22:00,
2013-02-04 02:21:00,16.0,-7.0,-100.00,NE,35,3.0,7.0,36,-99.99,,,-99.99,,2013-02-04 08:21:00,
2013-02-04 03:21:00,15.0,-7.0,-100.00,NNE,30,4.0,10.0,36,-99.99,,,-99.99,,2013-02-04 09:21:00,
2013-02-04 04:22:00,15.0,-7.0,-100.00,NNE,25,4.0,9.0,36,-99.99,,,-99.99,,2013-02-04 10:22:00,
2013-02-04 05:22:00,14.0,-14.0,-100.00,NNE,20,4.0,10.0,27,-99.99,,,-99.99,,2013-02-04 11:22:00,
2013-02-04 06:22:00,14.0,-9.0,-100.00,NNE,30,4.0,10.0,34,-99.99,,,-99.99,,2013-02-04 12:22:00,
2013-02-04 07:22:00,14.0,-8.0,-100.00,NNE,20,6.0,11.0,36,-99.99,,,-99.99,,2013-02-04 13:22:00,
2013-02-04 08:23:00,13.0,-10.0,-100.00,NNE,15,6.0,11.0,34,-99.99,,,-99.99,,2013-02-04 14:23:00,
2013-02-04 09:24:00,14.0,-10.0,-100.00,NNE,20,6.0,12.0,33,-99.99,,,-99.99,,2013-02-04 15:24:00,
2013-02-04 10:23:00,14.0,-12.0,-100.00,NNE,20,6.0,14.0,29,-99.99,,,-99.99,,2013-02-04 16:23:00,
2013-02-04 11:21:00,16.0,-11.0,-100.00,North,5,6.0,10.0,29,-99.99,,,-99.99,,2013-02-04 17:21:00,
2013-02-04 12:00:00,16.0,4.0,-100.00,SE,130,4.0,12.0,60,-99.99,,,-99.99,,2013-02-04 18:00:00,
2013-02-04 12:22:00,16.0,4.0,-100.00,SE,130,4.0,12.0,60,-99.99,,,-99.99,,2013-02-04 18:22:00,
2013-02-04 12:32:00,16.0,4.0,-100.00,SE,130,4.0,12.0,60,-99.99,,,-99.99,,2013-02-04 18:32:00,
2013-02-04 12:42:00,16.0,4.0,-100.00,SE,130,4.0,12.0,60,-99.99,,,-99.99,,2013-02-04 18:42:00,
2013-02-04 12:52:00,16.0,4.0,-100.00,SE,130,4.0,12.0,60,-99.99,,,-99.99,,2013-02-04 18:52:00,
2013-02-04 13:00:00,17.0,3.0,-100.00,SE,130,4.0,12.0,53,-99.99,,,-99.99,,2013-02-04 19:00:00,
2013-02-04 13:22:00,17.0,3.0,-100.00,SE,130,4.0,12.0,53,-99.99,,,-99.99,,2013-02-04 19:22:00,
2013-02-04 13:32:00,17.0,3.0,-100.00,SE,130,4.0,12.0,53,-99.99,,,-99.99,,2013-02-04 19:32:00,
2013-02-04 14:00:00,18.0,2.0,-100.00,North,10,5.0,11.0,50,-99.99,,,-99.99,,2013-02-04 20:00:00,
2013-02-04 14:22:00,18.0,2.0,-100.00,North,10,5.0,11.0,50,-99.99,,,-99.99,,2013-02-04 20:22:00,
2013-02-04 15:23:00,18.0,0.0,-100.00,SE,130,4.0,9.0,46,-99.99,,,-99.99,,2013-02-04 21:23:00,
2013-02-04 16:22:00,17.0,-1.0,-100.00,NNE,15,4.0,7.0,45,-99.99,,,-99.99,,2013-02-04 22:22:00,
2013-02-04 17:00:00,15.0,-2.0,-100.00,NNE,30,2.0,4.0,47,-99.99,,,-99.99,,2013-02-04 23:00:00,
2013-02-04 17:22:00,15.0,-2.0,-100.00,NNE,30,2.0,4.0,47,-99.99,,,-99.99,,2013-02-04 23:22:00,
2013-02-04 18:00:00,13.0,-1.0,-100.00,East,80,1.0,5.0,52,-99.99,,,-99.99,,2013-02-05 00:00:00,
2013-02-04 18:22:00,13.0,-1.0,-100.00,East,80,1.0,5.0,52,-99.99,,,-99.99,,2013-02-05 00:22:00,
2013-02-04 18:32:00,13.0,-1.0,-100.00,East,80,1.0,5.0,52,-99.99,,,-99.99,,2013-02-05 00:32:00,
2013-02-04 18:42:00,13.0,-1.0,-100.00,East,80,1.0,5.0,52,-99.99,,,-99.99,,2013-02-05 00:42:00,
2013-02-04 18:52:00,13.0,-1.0,-100.00,East,80,1.0,5.0,52,-99.99,,,-99.99,,2013-02-05 00:52:00,
2013-02-04 19:00:00,12.0,0.0,-100.00,East,90,1.0,3.0,57,-99.99,,,-99.99,,2013-02-05 01:00:00,
2013-02-04 19:22:00,12.0,0.0,-100.00,East,90,1.0,3.0,57,-99.99,,,-99.99,,2013-02-05 01:22:00,
2013-02-04 19:32:00,12.0,0.0,-100.00,East,90,1.0,3.0,57,-99.99,,,-99.99,,2013-02-05 01:32:00,
2013-02-04 19:42:00,12.0,0.0,-100.00,East,90,1.0,3.0,57,-99.99,,,-99.99,,2013-02-05 01:42:00,
2013-02-04 19:52:00,12.0,0.0,-100.00,East,90,1.0,3.0,57,-99.99,,,-99.99,,2013-02-05 01:52:00,
2013-02-04 20:00:00,11.0,2.0,-100.00,NE,55,0.0,2.0,67,-99.99,,,-99.99,,2013-02-05 02:00:00,
2013-02-04 20:22:00,11.0,2.0,-100.00,NE,55,0.0,2.0,67,-99.99,,,-99.99,,2013-02-05 02:22:00,
2013-02-04 20:32:00,11.0,2.0,-100.00,NE,55,0.0,2.0,67,-99.99,,,-99.99,,2013-02-05 02:32:00,
2013-02-04 20:42:00,11.0,2.0,-100.00,NE,55,0.0,2.0,67,-99.99,,,-99.99,,2013-02-05 02:42:00,
2013-02-04 20:52:00,11.0,2.0,-100.00,NE,55,0.0,2.0,67,-99.99,,,-99.99,,2013-02-05 02:52:00,
2013-02-04 21:00:00,11.0,3.0,-100.00,NE,45,0.0,1.0,70,-99.99,,,-99.99,,2013-02-05 03:00:00,
2013-02-04 21:22:00,11.0,3.0,-100.00,NE,45,0.0,1.0,70,-99.99,,,-99.99,,2013-02-05 03:22:00,
2013-02-04 21:32:00,11.0,3.0,-100.00,NE,45,0.0,1.0,70,-99.99,,,-99.99,,2013-02-05 03:32:00,
2013-02-04 21:42:00,11.0,3.0,-100.00,NE,45,0.0,1.0,70,-99.99,,,-99.99,,2013-02-05 03:42:00,
2013-02-04 21:52:00,11.0,3.0,-100.00,NE,45,0.0,1.0,70,-99.99,,,-99.99,,2013-02-05 03:52:00,
2013-02-04 22:00:00,10.0,3.0,-100.00,ENE,65,1.0,3.0,74,-99.99,,,-99.99,,2013-02-05 04:00:00,
2013-02-04 22:22:00,10.0,3.0,-100.00,ENE,65,1.0,3.0,74,-99.99,,,-99.99,,2013-02-05 04:22:00,
2013-02-04 22:32:00,10.0,3.0,-100.00,ENE,65,1.0,3.0,74,-99.99,,,-99.99,,2013-02-05 04:32:00,
2013-02-04 22:42:00,10.0,3.0,-100.00,ENE,65,1.0,3.0,74,-99.99,,,-99.99,,2013-02-05 04:42:00,
2013-02-04 22:52:00,10.0,3.0,-100.00,ENE,65,1.0,3.0,74,-99.99,,,-99.99,,2013-02-05 04:52:00,
2013-02-04 23:00:00,8.0,1.0,-100.00,NE,45,1.0,3.0,76,-99.99,,,-99.99,,2013-02-05 05:00:00,
2013-02-04 23:22:00,8.0,1.0,-100.00,NE,45,1.0,3.0,76,-99.99,,,-99.99,,2013-02-05 05:22:00,
2013-02-04 23:32:00,8.0,1.0,-100.00,NE,45,1.0,3.0,76,-99.99,,,-99.99,,2013-02-05 05:32:00,
2013-02-04 23:42:00,8.0,1.0,-100.00,NE,45,1.0,3.0,76,-99.99,,,-99.99,,2013-02-05 05:42:00,
2013-02-04 23:52:00,8.0,1.0,-100.00,NE,45,1.0,3.0,76,-99.99,,,-99.99,,2013-02-05 05:52:00,